createdAt,value
2019-05-29T00:00:16.308Z,10.50
2019-05-29T00:02:45.006Z,10.50
2019-05-29T00:05:14.271Z,10.50
2019-05-29T00:07:42.964Z,10.50
2019-05-29T00:10:12.350Z,10.40
2019-05-29T00:12:41.082Z,10.40
2019-05-29T00:15:10.543Z,10.50
2019-05-29T00:17:39.178Z,10.40
2019-05-29T00:20:08.317Z,10.40
2019-05-29T00:22:37.059Z,10.40
2019-05-29T00:25:08.419Z,10.40
2019-05-29T00:27:37.196Z,10.30
2019-05-29T00:30:07.183Z,10.30
2019-05-29T00:32:36.354Z,10.20
2019-05-29T00:35:08.395Z,10.10
2019-05-29T00:37:37.149Z,10.00
2019-05-29T00:40:08.758Z,10.10
2019-05-29T00:42:39.406Z,10.10
2019-05-29T00:45:09.485Z,10.10
2019-05-29T00:47:38.413Z,10.10
2019-05-29T00:50:08.064Z,10.00
2019-05-29T00:52:36.837Z,10.10
2019-05-29T00:55:06.730Z,10.10
2019-05-29T00:57:35.390Z,10.00
2019-05-29T01:00:06.146Z,10.00
2019-05-29T01:02:34.804Z,10.00
2019-05-29T01:05:04.768Z,9.90
2019-05-29T01:07:33.424Z,9.90
2019-05-29T01:10:02.150Z,9.90
2019-05-29T01:12:30.794Z,9.90
2019-05-29T01:14:59.451Z,9.80
2019-05-29T01:17:28.072Z,9.70
2019-05-29T01:19:56.738Z,9.60
2019-05-29T01:22:25.356Z,9.60
2019-05-29T01:24:54.085Z,9.70
2019-05-29T01:27:23.098Z,9.70
2019-05-29T01:29:51.979Z,9.70
2019-05-29T01:32:21.667Z,9.70
2019-05-29T01:34:50.469Z,9.60
2019-05-29T01:37:20.241Z,9.70
2019-05-29T01:39:49.060Z,9.70
2019-05-29T01:42:17.711Z,9.70
2019-05-29T01:44:46.402Z,9.70
2019-05-29T01:47:15.374Z,9.50
2019-05-29T01:49:44.004Z,9.60
2019-05-29T01:52:12.669Z,9.60
2019-05-29T01:54:41.298Z,9.70
2019-05-29T01:57:10.013Z,9.50
2019-05-29T01:59:38.766Z,9.40
2019-05-29T02:02:07.323Z,9.40
2019-05-29T02:04:35.933Z,9.30
2019-05-29T02:07:05.142Z,9.30
2019-05-29T02:09:33.771Z,9.10
2019-05-29T02:12:02.419Z,9.10
2019-05-29T02:14:31.046Z,9.10
2019-05-29T02:16:59.792Z,9.10
2019-05-29T02:19:28.514Z,9.00
2019-05-29T02:21:57.158Z,9.00
2019-05-29T02:24:25.915Z,8.90
2019-05-29T02:26:54.582Z,8.90
2019-05-29T02:29:23.227Z,8.80
2019-05-29T02:31:51.861Z,8.80
2019-05-29T02:34:22.309Z,8.80
2019-05-29T02:36:50.890Z,8.70
2019-05-29T02:39:21.153Z,8.60
2019-05-29T02:41:49.888Z,8.60
2019-05-29T02:44:19.217Z,8.50
2019-05-29T02:46:47.962Z,8.50
2019-05-29T02:49:16.891Z,8.50
2019-05-29T02:51:45.507Z,8.50
2019-05-29T02:54:14.171Z,8.50
2019-05-29T02:56:43.051Z,8.40
2019-05-29T02:59:11.766Z,8.40
2019-05-29T03:01:40.426Z,8.40
2019-05-29T03:04:09.081Z,8.30
2019-05-29T03:06:38.308Z,8.30
2019-05-29T03:09:07.360Z,8.20
2019-05-29T03:11:36.032Z,8.20
2019-05-29T03:14:04.932Z,8.20
2019-05-29T03:16:34.931Z,8.20
2019-05-29T03:19:03.799Z,8.20
2019-05-29T03:21:32.595Z,8.20
2019-05-29T03:24:01.786Z,8.10
2019-05-29T03:26:31.441Z,8.20
2019-05-29T03:29:00.982Z,8.10
2019-05-29T03:31:36.881Z,8.10
2019-05-29T03:33:59.971Z,8.00
2019-05-29T03:36:34.638Z,8.00
2019-05-29T03:38:58.990Z,8.00
2019-05-29T03:41:28.205Z,8.10
2019-05-29T03:43:56.880Z,8.10
2019-05-29T03:46:35.096Z,8.10
2019-05-29T03:48:55.925Z,8.10
2019-05-29T03:51:24.647Z,8.10
2019-05-29T03:53:53.252Z,8.10
2019-05-29T03:56:21.916Z,8.00
2019-05-29T03:58:50.573Z,8.10
2019-05-29T04:01:19.226Z,8.20
2019-05-29T04:03:47.859Z,8.30
2019-05-29T04:06:16.688Z,8.30
2019-05-29T04:08:45.398Z,8.40
2019-05-29T04:11:14.092Z,8.30
2019-05-29T04:13:42.771Z,8.30
2019-05-29T04:16:11.937Z,8.30
2019-05-29T04:18:41.460Z,8.40
2019-05-29T04:21:12.019Z,8.50
2019-05-29T04:23:42.457Z,8.60
2019-05-29T04:26:13.903Z,8.70
2019-05-29T04:28:42.918Z,8.80
2019-05-29T04:31:11.662Z,8.80
2019-05-29T04:33:40.371Z,8.80
2019-05-29T04:36:09.008Z,9.00
2019-05-29T04:38:38.466Z,9.00
2019-05-29T04:41:08.087Z,9.00
2019-05-29T04:43:37.637Z,9.00
2019-05-29T04:46:07.051Z,9.10
2019-05-29T04:48:36.274Z,9.20
2019-05-29T04:51:05.995Z,9.40
2019-05-29T04:53:35.516Z,9.30
2019-05-29T04:56:04.402Z,9.40
2019-05-29T04:58:33.045Z,9.30
2019-05-29T05:01:01.781Z,9.50
2019-05-29T05:03:31.037Z,9.60
2019-05-29T05:05:59.851Z,9.70
2019-05-29T05:08:29.214Z,9.70
2019-05-29T05:10:58.625Z,9.80
2019-05-29T05:13:27.278Z,9.90
2019-05-29T05:15:57.934Z,10.00
2019-05-29T05:18:26.707Z,10.00
2019-05-29T05:20:55.370Z,10.10
2019-05-29T05:23:24.040Z,10.40
2019-05-29T05:25:52.703Z,10.60
2019-05-29T05:28:21.335Z,10.60
2019-05-29T05:30:50.040Z,10.70
2019-05-29T05:33:18.765Z,10.80
2019-05-29T05:35:47.341Z,11.00
2019-05-29T05:38:16.015Z,11.10
2019-05-29T05:40:44.651Z,11.00
2019-05-29T05:43:23.551Z,11.30
2019-05-29T05:45:43.586Z,11.50
2019-05-29T05:48:12.304Z,11.70
2019-05-29T05:50:41.463Z,11.60
2019-05-29T05:53:10.245Z,11.90
2019-05-29T05:55:39.791Z,12.40
2019-05-29T05:58:08.454Z,12.60
2019-05-29T06:00:38.055Z,12.40
2019-05-29T06:03:06.863Z,12.60
2019-05-29T06:05:36.123Z,12.50
2019-05-29T06:08:05.139Z,12.30
2019-05-29T06:10:36.112Z,12.60
2019-05-29T06:13:04.247Z,12.90
2019-05-29T06:15:32.887Z,12.70
2019-05-29T06:18:19.962Z,12.80
2019-05-29T06:20:32.644Z,13.30
2019-05-29T06:23:01.306Z,13.50
2019-05-29T06:25:30.060Z,13.90
2019-05-29T06:27:58.706Z,14.00
2019-05-29T06:30:27.531Z,14.00
2019-05-29T06:32:56.159Z,14.00
2019-05-29T06:35:24.842Z,14.20
2019-05-29T06:37:53.859Z,14.20
2019-05-29T06:40:38.257Z,14.30
2019-05-29T06:43:11.660Z,14.10
2019-05-29T06:45:39.851Z,14.20
2019-05-29T06:48:09.416Z,14.10
2019-05-29T06:50:39.315Z,14.50
2019-05-29T06:53:08.148Z,14.40
2019-05-29T06:55:37.894Z,14.20
2019-05-29T06:58:06.681Z,14.50
2019-05-29T07:00:37.146Z,14.40
2019-05-29T07:03:05.739Z,14.90
2019-05-29T07:05:35.509Z,14.80
2019-05-29T07:08:18.514Z,15.20
2019-05-29T07:10:36.327Z,15.40
2019-05-29T07:13:05.728Z,14.60
2019-05-29T07:15:34.433Z,13.90
2019-05-29T07:18:03.079Z,13.50
2019-05-29T07:20:31.711Z,13.60
2019-05-29T07:23:00.370Z,13.90
2019-05-29T07:25:29.114Z,13.80
2019-05-29T07:27:57.888Z,13.60
2019-05-29T07:30:26.660Z,13.40
2019-05-29T07:32:58.522Z,13.50
2019-05-29T07:35:25.842Z,13.60
2019-05-29T07:37:54.679Z,13.90
2019-05-29T07:40:23.312Z,14.80
2019-05-29T07:42:56.252Z,15.30
2019-05-29T07:45:22.529Z,15.40
2019-05-29T07:47:51.192Z,15.20
2019-05-29T07:50:20.091Z,14.70
2019-05-29T07:52:49.204Z,14.60
2019-05-29T07:55:18.728Z,14.40
2019-05-29T07:57:48.867Z,14.60
2019-05-29T08:00:18.781Z,14.70
2019-05-29T08:02:47.663Z,15.00
2019-05-29T08:05:16.499Z,15.30
2019-05-29T08:07:45.471Z,15.50
2019-05-29T08:10:16.540Z,15.30
2019-05-29T08:12:50.718Z,15.60
2019-05-29T08:15:16.240Z,16.30
2019-05-29T08:17:46.082Z,16.70
2019-05-29T08:20:15.579Z,16.90
2019-05-29T08:22:44.520Z,16.90
2019-05-29T08:25:13.706Z,16.80
2019-05-29T08:27:42.612Z,16.70
2019-05-29T08:30:11.824Z,16.60
2019-05-29T08:32:40.812Z,16.50
2019-05-29T08:35:09.827Z,15.80
2019-05-29T08:37:38.611Z,16.00
2019-05-29T08:40:08.120Z,16.00
2019-05-29T08:42:36.911Z,15.90
2019-05-29T08:45:08.011Z,15.80
2019-05-29T08:47:36.707Z,15.60
2019-05-29T08:50:17.983Z,15.10
2019-05-29T08:52:37.026Z,14.80
2019-05-29T08:55:06.396Z,14.30
2019-05-29T08:57:35.057Z,14.40
2019-05-29T09:00:06.675Z,14.60
2019-05-29T09:02:35.476Z,15.00
2019-05-29T09:05:06.515Z,15.40
2019-05-29T09:07:35.266Z,15.80
2019-05-29T09:10:07.099Z,16.30
2019-05-29T09:12:35.801Z,16.60
2019-05-29T09:15:08.194Z,16.40
2019-05-29T09:17:37.483Z,16.00
2019-05-29T09:20:25.411Z,15.90
2019-05-29T09:22:38.652Z,16.20
2019-05-29T09:25:07.759Z,16.30
2019-05-29T09:27:36.391Z,15.90
2019-05-29T09:30:06.495Z,16.00
2019-05-29T09:32:49.344Z,16.80
2019-05-29T09:35:06.100Z,17.50
2019-05-29T09:37:34.837Z,17.60
2019-05-29T09:40:03.994Z,17.60
2019-05-29T09:42:32.669Z,17.70
2019-05-29T09:45:01.299Z,18.00
2019-05-29T09:47:29.964Z,18.00
2019-05-29T09:49:58.597Z,17.60
2019-05-29T09:52:30.673Z,17.50
2019-05-29T09:54:58.246Z,17.20
2019-05-29T09:57:26.984Z,17.00
2019-05-29T09:59:56.409Z,16.20
2019-05-29T10:02:25.935Z,16.80
2019-05-29T10:04:56.087Z,17.10
2019-05-29T10:07:24.855Z,16.60
2019-05-29T10:09:54.925Z,16.30
2019-05-29T10:12:23.898Z,16.00
2019-05-29T10:14:53.702Z,16.30
2019-05-29T10:17:22.939Z,16.50
2019-05-29T10:19:51.582Z,16.60
2019-05-29T10:22:20.211Z,16.80
2019-05-29T10:24:48.839Z,16.60
2019-05-29T10:27:17.504Z,16.20
2019-05-29T10:29:49.667Z,16.60
2019-05-29T10:32:16.505Z,16.40
2019-05-29T10:34:46.244Z,16.70
2019-05-29T10:37:17.929Z,16.90
2019-05-29T10:39:46.666Z,16.30
2019-05-29T10:42:15.407Z,16.00
2019-05-29T10:44:44.887Z,16.10
2019-05-29T10:47:13.645Z,16.00
2019-05-29T10:49:43.452Z,16.20
2019-05-29T10:52:17.430Z,16.70
2019-05-29T10:54:46.127Z,16.90
2019-05-29T10:57:14.791Z,17.00
2019-05-29T10:59:44.588Z,17.00
2019-05-29T11:02:13.279Z,17.20
2019-05-29T11:04:41.995Z,17.60
2019-05-29T11:07:10.695Z,18.30
2019-05-29T11:09:44.410Z,18.50
2019-05-29T11:12:09.790Z,18.60
2019-05-29T11:14:38.530Z,19.60
2019-05-29T11:17:07.274Z,19.50
2019-05-29T11:19:35.911Z,20.20
2019-05-29T11:22:24.757Z,20.80
2019-05-29T11:24:35.213Z,20.40
2019-05-29T11:27:03.966Z,19.80
2019-05-29T11:29:32.536Z,19.40
2019-05-29T11:32:01.346Z,18.80
2019-05-29T11:34:29.995Z,18.30
2019-05-29T11:36:58.712Z,17.80
2019-05-29T11:39:27.570Z,17.70
2019-05-29T11:41:56.831Z,18.10
2019-05-29T11:44:25.522Z,18.00
2019-05-29T11:46:54.374Z,18.30
2019-05-29T11:49:23.585Z,18.00
2019-05-29T11:51:53.641Z,17.80
2019-05-29T11:54:22.451Z,17.80
2019-05-29T11:56:52.273Z,17.80
2019-05-29T11:59:21.443Z,17.90
2019-05-29T12:01:52.417Z,17.90
2019-05-29T12:04:26.477Z,17.60
2019-05-29T12:06:51.184Z,17.60
2019-05-29T12:09:32.159Z,17.60
2019-05-29T12:11:51.732Z,18.00
2019-05-29T12:14:20.603Z,18.40
2019-05-29T12:16:49.296Z,19.00
2019-05-29T12:19:17.956Z,19.30
2019-05-29T12:21:46.606Z,19.70
2019-05-29T12:24:15.267Z,19.90
2019-05-29T12:26:43.918Z,19.20
2019-05-29T12:29:12.838Z,19.80
2019-05-29T12:31:41.539Z,20.20
2019-05-29T12:34:18.662Z,20.00
2019-05-29T12:36:40.584Z,20.50
2019-05-29T12:39:09.208Z,20.20
2019-05-29T12:41:37.838Z,20.30
2019-05-29T12:44:06.685Z,19.80
2019-05-29T12:46:35.308Z,19.50
2019-05-29T12:49:04.042Z,19.20
2019-05-29T12:51:32.752Z,19.20
2019-05-29T12:54:02.320Z,19.10
2019-05-29T12:56:31.305Z,19.40
2019-05-29T12:59:00.526Z,19.80
2019-05-29T13:01:29.292Z,19.90
2019-05-29T13:03:58.676Z,19.10
2019-05-29T13:06:27.484Z,19.10
2019-05-29T13:08:56.376Z,19.20
2019-05-29T13:11:25.088Z,19.10
2019-05-29T13:13:54.353Z,19.30
2019-05-29T13:16:23.164Z,18.60
2019-05-29T13:18:51.797Z,18.00
2019-05-29T13:21:20.459Z,17.80
2019-05-29T13:23:49.134Z,17.90
2019-05-29T13:26:17.810Z,17.90
2019-05-29T13:28:46.437Z,18.50
2019-05-29T13:31:15.100Z,19.20
2019-05-29T13:33:43.820Z,19.60
2019-05-29T13:36:12.485Z,19.60
2019-05-29T13:38:41.167Z,19.00
2019-05-29T13:41:09.875Z,18.30
2019-05-29T13:43:38.510Z,18.30
2019-05-29T13:46:07.180Z,18.00
2019-05-29T13:48:35.823Z,17.60
2019-05-29T13:51:05.492Z,17.80
2019-05-29T13:53:34.477Z,17.90
2019-05-29T13:56:04.126Z,18.20
2019-05-29T13:58:32.997Z,18.40
2019-05-29T14:01:02.488Z,18.50
2019-05-29T14:03:31.220Z,18.30
2019-05-29T14:06:00.849Z,18.40
2019-05-29T14:08:29.623Z,18.40
2019-05-29T14:10:59.069Z,18.60
2019-05-29T14:13:27.907Z,18.50
2019-05-29T14:15:56.627Z,18.20
2019-05-29T14:18:25.246Z,18.50
2019-05-29T14:20:54.005Z,19.10
2019-05-29T14:23:22.627Z,19.40
2019-05-29T14:25:51.420Z,19.10
2019-05-29T14:28:20.139Z,18.70
2019-05-29T14:30:48.844Z,18.40
2019-05-29T14:33:17.522Z,18.40
2019-05-29T14:35:46.169Z,18.40
2019-05-29T14:38:15.275Z,18.60
2019-05-29T14:40:44.178Z,18.50
2019-05-29T14:43:15.430Z,18.40
2019-05-29T14:45:43.104Z,18.50
2019-05-29T14:48:13.119Z,18.70
2019-05-29T14:50:41.908Z,18.60
2019-05-29T14:53:11.375Z,18.60
2019-05-29T14:55:40.544Z,18.40
2019-05-29T14:58:09.803Z,18.40
2019-05-29T15:00:38.551Z,18.00
2019-05-29T15:03:07.431Z,18.10
2019-05-29T15:05:36.288Z,18.30
2019-05-29T15:08:05.778Z,18.50
2019-05-29T15:10:34.714Z,18.80
2019-05-29T15:13:04.325Z,18.80
2019-05-29T15:15:33.082Z,18.60
2019-05-29T15:18:01.840Z,18.50
2019-05-29T15:20:30.464Z,18.60
2019-05-29T15:22:59.125Z,18.60
2019-05-29T15:25:27.847Z,18.50
2019-05-29T15:27:56.528Z,18.60
2019-05-29T15:30:25.280Z,18.60
2019-05-29T15:32:54.115Z,18.60
2019-05-29T15:35:22.766Z,18.40
2019-05-29T15:37:51.497Z,18.30
2019-05-29T15:40:21.389Z,18.40
2019-05-29T15:42:50.009Z,18.40
2019-05-29T15:45:20.194Z,18.40
2019-05-29T15:47:48.945Z,19.10
2019-05-29T15:50:18.104Z,19.00
2019-05-29T15:52:47.092Z,19.10
2019-05-29T15:55:33.247Z,19.00
2019-05-29T15:57:46.533Z,19.00
2019-05-29T16:00:17.731Z,19.00
2019-05-29T16:02:48.814Z,19.00
2019-05-29T16:05:17.382Z,19.00
2019-05-29T16:07:46.079Z,19.00
2019-05-29T16:10:20.555Z,19.00
2019-05-29T16:12:48.571Z,18.70
2019-05-29T16:15:18.975Z,18.50
2019-05-29T16:17:48.130Z,18.40
2019-05-29T16:20:18.400Z,18.40
2019-05-29T16:22:47.295Z,18.30
2019-05-29T16:25:16.946Z,18.40
2019-05-29T16:27:45.787Z,18.40
2019-05-29T16:30:17.591Z,18.50
2019-05-29T16:32:46.411Z,18.90
2019-05-29T16:35:15.695Z,19.50
2019-05-29T16:37:44.447Z,19.60
2019-05-29T16:40:16.430Z,19.90
2019-05-29T16:42:45.366Z,19.90
2019-05-29T16:45:16.187Z,19.70
2019-05-29T16:47:45.034Z,19.20
2019-05-29T16:50:17.267Z,18.80
2019-05-29T16:52:45.862Z,18.60
2019-05-29T16:55:15.266Z,18.90
2019-05-29T16:57:43.904Z,19.00
2019-05-29T17:00:13.901Z,19.30
2019-05-29T17:02:44.190Z,19.40
2019-05-29T17:05:13.646Z,19.30
2019-05-29T17:07:42.550Z,19.10
2019-05-29T17:10:12.583Z,18.90
2019-05-29T17:12:41.291Z,18.70
2019-05-29T17:15:11.299Z,18.80
2019-05-29T17:17:40.095Z,18.90
2019-05-29T17:20:09.298Z,18.90
2019-05-29T17:22:37.993Z,18.80
2019-05-29T17:25:07.494Z,18.60
2019-05-29T17:27:36.563Z,18.70
2019-05-29T17:30:08.986Z,18.60
2019-05-29T17:32:37.677Z,18.60
2019-05-29T17:35:08.363Z,18.60
2019-05-29T17:37:37.577Z,18.60
2019-05-29T17:40:07.510Z,18.60
2019-05-29T17:42:36.163Z,18.60
2019-05-29T17:45:08.089Z,18.40
2019-05-29T17:47:37.100Z,18.40
2019-05-29T17:50:07.968Z,18.40
2019-05-29T17:52:36.669Z,18.60
2019-05-29T17:55:06.666Z,18.90
2019-05-29T17:57:35.463Z,18.90
2019-05-29T18:00:07.546Z,19.00
2019-05-29T18:02:50.871Z,19.00
2019-05-29T18:05:07.325Z,19.00
2019-05-29T18:07:36.118Z,18.90
2019-05-29T18:10:06.000Z,18.90
2019-05-29T18:12:34.662Z,18.90
2019-05-29T18:15:04.932Z,19.00
2019-05-29T18:17:33.583Z,19.00
2019-05-29T18:20:02.496Z,18.90
2019-05-29T18:22:31.208Z,18.80
2019-05-29T18:24:59.835Z,18.90
2019-05-29T18:27:29.462Z,18.70
2019-05-29T18:29:58.207Z,18.70
2019-05-29T18:32:26.884Z,18.60
2019-05-29T18:34:56.523Z,18.50
2019-05-29T18:37:26.203Z,18.30
2019-05-29T18:39:56.028Z,18.10
2019-05-29T18:42:25.671Z,17.90
2019-05-29T18:44:55.923Z,17.90
2019-05-29T18:47:25.142Z,17.80
2019-05-29T18:49:53.935Z,17.70
2019-05-29T18:52:23.630Z,17.50
2019-05-29T18:54:52.679Z,17.40
2019-05-29T18:57:21.524Z,17.40
2019-05-29T18:59:50.710Z,17.30
2019-05-29T19:02:19.375Z,17.10
2019-05-29T19:04:48.151Z,17.20
2019-05-29T19:07:16.810Z,17.00
2019-05-29T19:09:45.500Z,17.10
2019-05-29T19:12:14.122Z,17.10
2019-05-29T19:14:42.873Z,17.20
2019-05-29T19:17:11.730Z,17.20
2019-05-29T19:19:40.453Z,17.20
2019-05-29T19:22:09.397Z,17.20
2019-05-29T19:24:38.106Z,17.20
2019-05-29T19:27:06.721Z,17.10
2019-05-29T19:29:35.537Z,16.90
2019-05-29T19:32:04.703Z,16.50
2019-05-29T19:34:33.651Z,16.20
2019-05-29T19:37:02.571Z,16.20
2019-05-29T19:39:32.055Z,16.20
2019-05-29T19:42:00.838Z,16.30
2019-05-29T19:44:32.501Z,16.40
2019-05-29T19:47:01.234Z,16.30
2019-05-29T19:49:30.875Z,16.20
2019-05-29T19:52:00.157Z,16.10
2019-05-29T19:54:29.421Z,16.10
2019-05-29T19:56:58.214Z,16.10
2019-05-29T19:59:27.957Z,16.00
2019-05-29T20:01:56.741Z,15.90
2019-05-29T20:04:26.596Z,15.90
2019-05-29T20:06:55.339Z,15.90
2019-05-29T20:09:23.999Z,15.90
2019-05-29T20:11:52.629Z,15.80
2019-05-29T20:14:21.301Z,15.50
2019-05-29T20:16:49.941Z,15.20
2019-05-29T20:19:19.106Z,15.10
2019-05-29T20:21:47.956Z,15.10
2019-05-29T20:24:16.704Z,15.30
2019-05-29T20:26:45.657Z,15.40
2019-05-29T20:29:14.284Z,15.50
2019-05-29T20:31:43.031Z,15.50
2019-05-29T20:34:11.771Z,15.30
2019-05-29T20:36:41.462Z,15.30
2019-05-29T20:39:10.284Z,15.40
2019-05-29T20:41:41.644Z,15.20
2019-05-29T20:44:09.960Z,14.90
2019-05-29T20:46:38.766Z,14.60
2019-05-29T20:49:07.474Z,14.40
2019-05-29T20:51:38.155Z,14.20
2019-05-29T20:54:06.863Z,14.00
2019-05-29T20:56:35.879Z,13.90
2019-05-29T20:59:04.642Z,14.10
2019-05-29T21:01:42.986Z,14.50
2019-05-29T21:04:03.573Z,14.30
2019-05-29T21:06:32.450Z,14.00
2019-05-29T21:09:01.053Z,13.90
2019-05-29T21:11:29.756Z,13.70
2019-05-29T21:13:58.387Z,13.40
2019-05-29T21:16:27.711Z,13.20
2019-05-29T21:18:56.314Z,13.00
2019-05-29T21:21:25.231Z,12.80
2019-05-29T21:23:53.866Z,12.70
2019-05-29T21:26:22.679Z,12.50
2019-05-29T21:28:51.316Z,12.50
2019-05-29T21:31:19.952Z,12.60
2019-05-29T21:33:49.318Z,12.50
2019-05-29T21:36:18.151Z,12.40
2019-05-29T21:38:46.914Z,12.30
2019-05-29T21:41:15.644Z,12.20
2019-05-29T21:43:44.831Z,12.10
2019-05-29T21:46:13.470Z,12.10
2019-05-29T21:48:43.370Z,12.10
2019-05-29T21:51:12.057Z,12.10
2019-05-29T21:53:41.300Z,12.20
2019-05-29T21:56:09.971Z,12.30
2019-05-29T21:58:39.542Z,12.20
2019-05-29T22:01:10.120Z,12.20
2019-05-29T22:03:38.749Z,12.10
2019-05-29T22:06:08.160Z,12.00
2019-05-29T22:08:36.876Z,12.00
2019-05-29T22:13:52.371Z,11.90
2019-05-29T22:16:21.152Z,11.90
2019-05-29T22:18:50.784Z,11.70
2019-05-29T22:21:19.726Z,12.00
2019-05-29T22:23:48.395Z,12.30
2019-05-29T22:26:17.056Z,12.20
2019-05-29T22:28:45.664Z,12.10
2019-05-29T22:31:14.471Z,11.90
2019-05-29T22:33:43.291Z,11.70
2019-05-29T22:36:11.947Z,11.60
2019-05-29T22:38:40.579Z,11.60
2019-05-29T22:41:09.506Z,11.60
2019-05-29T22:43:38.224Z,11.60
2019-05-29T22:46:06.886Z,11.50
2019-05-29T22:48:35.591Z,11.60
2019-05-29T22:51:04.292Z,11.60
2019-05-29T22:53:33.047Z,11.50
2019-05-29T22:56:02.019Z,11.50
2019-05-29T22:58:30.743Z,11.60
2019-05-29T23:01:00.036Z,11.60
2019-05-29T23:03:28.794Z,11.60
2019-05-29T23:05:58.687Z,11.50
2019-05-29T23:08:27.364Z,11.40
2019-05-29T23:10:56.223Z,11.40
2019-05-29T23:13:25.203Z,11.30
2019-05-29T23:15:54.468Z,11.20
2019-05-29T23:18:23.897Z,11.30
2019-05-29T23:20:52.546Z,11.30
2019-05-29T23:23:21.276Z,11.30
2019-05-29T23:25:52.828Z,11.20
2019-05-29T23:28:21.769Z,11.10
2019-05-29T23:30:51.127Z,11.10
2019-05-29T23:33:20.516Z,10.90
2019-05-29T23:35:49.142Z,10.90
2019-05-29T23:38:17.765Z,10.90
2019-05-29T23:40:46.782Z,10.80
2019-05-29T23:43:15.408Z,10.80
2019-05-29T23:45:44.098Z,10.80
2019-05-29T23:48:12.798Z,10.60
2019-05-29T23:50:41.587Z,10.50
2019-05-29T23:53:10.239Z,10.60
2019-05-29T23:55:38.882Z,10.60
2019-05-29T23:58:08.414Z,10.60
